createdAt,value
2019-01-28T00:03:34.804Z,33.20
2019-01-28T00:06:00.571Z,34.23
2019-01-28T00:08:26.327Z,31.77
2019-01-28T00:10:52.092Z,29.77
2019-01-28T00:13:17.847Z,37.87
2019-01-28T00:18:56.928Z,33.65
2019-01-28T00:21:22.684Z,28.73
2019-01-28T00:23:48.442Z,31.50
2019-01-28T00:26:55.886Z,25.60
2019-01-28T00:29:21.658Z,27.17
2019-01-28T00:31:47.427Z,29.47
2019-01-28T00:34:13.187Z,28.10
2019-01-28T00:36:38.952Z,26.50
2019-01-28T00:39:46.391Z,32.93
2019-01-28T00:42:12.153Z,28.95
2019-01-28T00:44:37.907Z,32.90
2019-01-28T00:47:03.793Z,27.40
2019-01-28T00:49:29.543Z,20.20
2019-01-28T00:51:55.327Z,25.13
2019-01-28T00:54:21.077Z,22.30
2019-01-28T00:56:46.851Z,21.63
2019-01-28T00:59:12.611Z,28.00
2019-01-28T01:01:39.008Z,23.67
2019-01-28T01:04:06.054Z,32.58
2019-01-28T01:06:31.817Z,24.53
2019-01-28T01:08:57.569Z,24.90
2019-01-28T01:11:23.340Z,29.30
2019-01-28T01:13:49.402Z,24.53
2019-01-28T01:16:15.145Z,26.10
2019-01-28T01:18:40.891Z,21.67
2019-01-28T01:21:06.660Z,29.13
2019-01-28T01:23:32.429Z,23.63
2019-01-28T01:25:58.206Z,31.50
2019-01-28T01:28:23.965Z,28.17
2019-01-28T01:30:49.734Z,23.10
2019-01-28T01:33:15.494Z,25.13
2019-01-28T01:35:41.261Z,26.77
2019-01-28T01:38:07.028Z,24.80
2019-01-28T01:40:32.795Z,27.13
2019-01-28T01:42:58.560Z,30.47
2019-01-28T01:45:24.316Z,22.87
2019-01-28T01:47:50.098Z,38.30
2019-01-28T01:53:09.549Z,34.78
2019-01-28T01:55:35.313Z,31.43
2019-01-28T01:58:01.066Z,32.17
2019-01-28T02:00:26.828Z,26.87
2019-01-28T02:02:52.594Z,29.50
2019-01-28T02:05:18.346Z,24.57
2019-01-28T02:07:44.118Z,29.33
2019-01-28T02:10:51.584Z,31.77
2019-01-28T02:13:17.349Z,32.48
2019-01-28T02:15:43.107Z,27.77
2019-01-28T02:18:08.875Z,28.87
2019-01-28T02:20:34.634Z,37.00
2019-01-28T02:23:00.397Z,31.47
2019-01-28T02:25:26.151Z,32.83
2019-01-28T02:27:51.921Z,33.70
2019-01-28T02:30:17.685Z,32.27
2019-01-28T02:32:43.548Z,36.37
2019-01-28T02:35:50.989Z,27.93
2019-01-28T02:38:16.753Z,28.45
2019-01-28T02:40:42.516Z,32.97
2019-01-28T02:43:08.290Z,28.30
2019-01-28T02:45:34.056Z,44.20
2019-01-28T02:47:59.830Z,29.97
2019-01-28T02:50:25.587Z,35.73
2019-01-28T02:52:51.350Z,34.17
2019-01-28T02:55:17.107Z,25.10
2019-01-28T02:58:24.556Z,32.87
2019-01-28T03:00:50.313Z,41.85
2019-01-28T03:03:16.076Z,29.00
2019-01-28T03:05:41.828Z,27.73
2019-01-28T03:08:07.608Z,29.27
2019-01-28T03:10:33.378Z,26.50
2019-01-28T03:12:59.123Z,36.33
2019-01-28T03:15:24.873Z,29.70
2019-01-28T03:17:50.642Z,30.67
2019-01-28T03:20:58.081Z,33.43
2019-01-28T03:26:02.260Z,36.77
2019-01-28T03:28:28.046Z,40.77
2019-01-28T03:30:53.803Z,30.53
2019-01-28T03:33:19.533Z,38.53
2019-01-28T03:35:45.284Z,46.53
2019-01-28T03:38:11.065Z,49.27
2019-01-28T03:40:36.818Z,51.13
2019-01-28T03:43:02.600Z,39.17
2019-01-28T03:45:28.349Z,36.73
2019-01-28T03:47:54.128Z,36.40
2019-01-28T03:50:19.874Z,36.13
2019-01-28T03:52:45.827Z,32.23
2019-01-28T03:58:25.480Z,33.18
2019-01-28T04:00:51.230Z,35.50
2019-01-28T04:03:17.000Z,33.33
2019-01-28T04:05:42.850Z,36.07
2019-01-28T04:08:08.627Z,36.67
2019-01-28T04:10:34.376Z,32.23
2019-01-28T04:13:00.172Z,41.40
2019-01-28T04:15:25.934Z,35.97
2019-01-28T04:17:51.802Z,34.47
2019-01-28T04:22:51.457Z,36.25
2019-01-28T04:25:37.128Z,33.23
2019-01-28T04:28:02.884Z,35.15
2019-01-28T04:30:28.659Z,43.83
2019-01-28T04:32:54.418Z,37.60
2019-01-28T04:35:20.189Z,32.23
2019-01-28T04:37:45.943Z,30.87
2019-01-28T04:40:53.395Z,30.47
2019-01-28T04:43:19.164Z,31.15
2019-01-28T04:45:44.925Z,37.00
2019-01-28T04:48:10.693Z,37.50
2019-01-28T04:50:36.471Z,33.10
2019-01-28T04:53:02.226Z,32.07
2019-01-28T04:55:28.004Z,56.00
2019-01-28T04:57:53.774Z,34.07
2019-01-28T05:01:01.221Z,29.63
2019-01-28T05:03:26.976Z,31.40
2019-01-28T05:05:52.757Z,31.40
2019-01-28T05:08:18.508Z,32.00
2019-01-28T05:10:44.288Z,34.27
2019-01-28T05:13:10.049Z,31.53
2019-01-28T05:15:35.828Z,28.30
2019-01-28T05:18:01.555Z,31.97
2019-01-28T05:20:27.322Z,38.10
2019-01-28T05:22:53.108Z,26.77
2019-01-28T05:25:18.964Z,27.03
2019-01-28T05:31:11.806Z,32.67
2019-01-28T05:33:37.554Z,33.63
2019-01-28T05:36:03.416Z,27.53
2019-01-28T05:38:29.202Z,32.83
2019-01-28T05:40:54.947Z,30.63
2019-01-28T05:43:20.707Z,28.60
2019-01-28T05:45:46.490Z,28.87
2019-01-28T05:48:12.258Z,31.47
2019-01-28T05:50:38.095Z,36.53
2019-01-28T05:53:03.854Z,36.53
2019-01-28T05:55:29.618Z,36.37
2019-01-28T05:57:55.378Z,28.53
2019-01-28T06:01:02.825Z,33.10
2019-01-28T06:03:28.593Z,26.37
2019-01-28T06:05:54.353Z,27.90
2019-01-28T06:08:20.100Z,34.07
2019-01-28T06:10:45.877Z,46.40
2019-01-28T06:13:11.625Z,43.83
2019-01-28T06:15:37.400Z,31.03
2019-01-28T06:18:03.180Z,35.13
2019-01-28T06:20:28.922Z,29.27
2019-01-28T06:22:54.669Z,36.00
2019-01-28T06:26:02.123Z,31.37
2019-01-28T06:28:27.878Z,34.75
2019-01-28T06:30:53.645Z,37.23
2019-01-28T06:33:19.413Z,35.77
2019-01-28T06:35:45.174Z,35.80
2019-01-28T06:38:10.926Z,38.13
2019-01-28T06:43:50.254Z,38.95
2019-01-28T06:46:16.031Z,32.23
2019-01-28T06:48:41.794Z,38.40
2019-01-28T06:51:07.556Z,31.30
2019-01-28T06:53:33.325Z,33.57
2019-01-28T06:55:59.088Z,36.03
2019-01-28T06:58:24.843Z,36.23
2019-01-28T07:00:50.634Z,40.37
2019-01-28T07:03:16.382Z,40.83
2019-01-28T07:05:42.132Z,37.67
2019-01-28T07:08:07.905Z,40.63
2019-01-28T07:10:33.647Z,37.07
2019-01-28T07:12:59.415Z,40.70
2019-01-28T07:15:25.161Z,51.40
2019-01-28T07:17:54.894Z,37.13
2019-01-28T07:21:00.272Z,40.20
2019-01-28T07:23:26.052Z,44.53
2019-01-28T07:25:51.795Z,49.87
2019-01-28T07:28:17.563Z,40.63
2019-01-28T07:30:43.313Z,49.13
2019-01-28T07:33:09.077Z,47.40
2019-01-28T07:35:34.826Z,50.53
2019-01-28T07:38:00.590Z,39.40
2019-01-28T07:40:26.351Z,46.20
2019-01-28T07:42:52.114Z,48.87
2019-01-28T07:45:59.543Z,64.00
2019-01-28T07:48:25.334Z,53.17
2019-01-28T07:50:51.081Z,46.17
2019-01-28T07:53:16.847Z,44.67
2019-01-28T07:55:42.599Z,40.40
2019-01-28T07:58:08.360Z,60.33
2019-01-28T08:00:34.212Z,49.57
2019-01-28T08:02:59.973Z,49.67
2019-01-28T08:05:25.939Z,51.73
2019-01-28T08:07:51.690Z,52.40
2019-01-28T08:10:59.135Z,56.80
2019-01-28T08:13:24.922Z,53.92
2019-01-28T08:15:50.675Z,55.13
2019-01-28T08:18:16.440Z,53.00
2019-01-28T08:20:42.187Z,52.90
2019-01-28T08:23:07.942Z,46.27
2019-01-28T08:25:33.719Z,54.77
2019-01-28T08:27:59.565Z,43.33
2019-01-28T08:30:45.216Z,47.97
2019-01-28T08:33:10.975Z,50.30
2019-01-28T08:35:36.846Z,56.03
2019-01-28T08:38:02.605Z,44.37
2019-01-28T08:40:28.383Z,54.13
2019-01-28T08:42:54.130Z,47.43
2019-01-28T08:45:19.994Z,63.53
2019-01-28T08:47:45.761Z,56.87
2019-01-28T08:50:53.195Z,58.47
2019-01-28T08:53:18.962Z,56.48
2019-01-28T08:55:44.998Z,58.20
2019-01-28T08:58:11.056Z,52.87
2019-01-28T09:01:18.478Z,48.57
2019-01-28T09:03:44.236Z,45.50
2019-01-28T09:06:10.156Z,50.97
2019-01-28T09:08:35.913Z,53.13
2019-01-28T09:11:01.681Z,40.93
2019-01-28T09:13:27.434Z,43.70
2019-01-28T09:15:53.203Z,55.03
2019-01-28T09:18:26.060Z,46.67
2019-01-28T09:20:46.622Z,44.27
2019-01-28T09:23:12.374Z,47.10
2019-01-28T09:25:38.166Z,50.20
2019-01-28T09:28:04.283Z,44.73
2019-01-28T09:31:11.720Z,39.40
2019-01-28T09:33:37.477Z,45.20
2019-01-28T09:36:03.247Z,42.47
2019-01-28T09:38:29.106Z,43.17
2019-01-28T09:40:54.879Z,47.37
2019-01-28T09:43:20.628Z,48.43
2019-01-28T09:45:46.402Z,48.53
2019-01-28T09:48:53.850Z,49.17
2019-01-28T09:51:19.617Z,58.77
2019-01-28T09:53:45.378Z,41.27
2019-01-28T09:56:11.151Z,51.97
2019-01-28T09:58:36.906Z,48.87
2019-01-28T10:01:44.374Z,40.30
2019-01-28T10:04:10.131Z,43.87
2019-01-28T10:06:35.904Z,45.30
2019-01-28T10:11:49.087Z,51.00
2019-01-28T10:14:14.829Z,38.67
2019-01-28T10:16:40.609Z,46.17
2019-01-28T10:19:06.347Z,49.00
2019-01-28T10:21:32.115Z,45.97
2019-01-28T10:23:57.869Z,41.23
2019-01-28T10:26:23.650Z,34.73
2019-01-28T10:28:49.410Z,42.97
2019-01-28T10:31:15.195Z,54.67
2019-01-28T10:33:40.946Z,36.77
2019-01-28T10:36:06.703Z,39.43
2019-01-28T10:38:32.468Z,50.27
2019-01-28T10:40:58.233Z,51.50
2019-01-28T10:43:24.000Z,46.47
2019-01-28T10:45:49.756Z,39.60
2019-01-28T10:48:15.697Z,37.50
2019-01-28T10:50:41.487Z,36.13
2019-01-28T10:53:07.348Z,39.90
2019-01-28T10:55:33.109Z,34.00
2019-01-28T10:57:58.882Z,39.30
2019-01-28T11:01:06.316Z,34.17
2019-01-28T11:06:26.159Z,36.87
2019-01-28T11:08:51.921Z,41.20
2019-01-28T11:11:17.703Z,38.33
2019-01-28T11:13:43.552Z,42.03
2019-01-28T11:16:09.438Z,39.73
2019-01-28T11:18:35.302Z,38.53
2019-01-28T11:21:01.074Z,38.17
2019-01-28T11:23:26.897Z,34.73
2019-01-28T11:25:52.817Z,35.37
2019-01-28T11:28:20.328Z,40.83
2019-01-28T11:31:27.783Z,41.90
2019-01-28T11:33:53.604Z,34.70
2019-01-28T11:36:19.514Z,44.30
2019-01-28T11:38:45.430Z,35.30
2019-01-28T11:41:11.237Z,29.37
2019-01-28T11:43:37.152Z,31.53
2019-01-28T11:46:44.566Z,31.33
2019-01-28T11:49:10.335Z,30.97
2019-01-28T11:51:36.094Z,30.13
2019-01-28T11:54:01.980Z,32.00
2019-01-28T11:56:27.732Z,27.63
2019-01-28T11:58:53.502Z,28.60
2019-01-28T12:04:06.558Z,53.67
2019-01-28T12:06:32.406Z,25.07
2019-01-28T12:08:58.175Z,26.80
2019-01-28T12:11:24.038Z,23.87
2019-01-28T12:13:49.806Z,26.83
2019-01-28T12:16:15.558Z,31.50
2019-01-28T12:18:41.360Z,30.77
2019-01-28T12:21:07.214Z,29.17
2019-01-28T12:23:34.705Z,36.57
2019-01-28T12:26:00.651Z,28.43
2019-01-28T12:28:26.451Z,29.33
2019-01-28T12:30:52.212Z,34.77
2019-01-28T12:33:17.970Z,35.73
2019-01-28T12:35:43.744Z,33.83
2019-01-28T12:38:09.492Z,37.43
2019-01-28T12:40:35.252Z,37.20
2019-01-28T12:43:01.006Z,37.87
2019-01-28T12:46:08.467Z,43.23
2019-01-28T12:48:34.234Z,39.13
2019-01-28T12:50:59.996Z,39.70
2019-01-28T12:53:25.759Z,39.83
2019-01-28T12:55:51.529Z,35.00
2019-01-28T12:58:17.268Z,44.80
2019-01-28T13:03:58.140Z,47.10
2019-01-28T13:06:23.908Z,45.50
2019-01-28T13:08:49.652Z,48.83
2019-01-28T13:11:15.418Z,43.60
2019-01-28T13:13:41.380Z,39.40
2019-01-28T13:16:08.932Z,44.63
2019-01-28T13:18:34.687Z,37.83
2019-01-28T13:21:00.458Z,40.47
2019-01-28T13:23:26.314Z,35.77
2019-01-28T13:25:52.083Z,32.20
2019-01-28T13:28:17.829Z,37.43
2019-01-28T13:30:43.595Z,39.73
2019-01-28T13:33:51.017Z,39.40
2019-01-28T13:36:16.785Z,37.13
2019-01-28T13:38:42.534Z,37.20
2019-01-28T13:41:08.298Z,39.07
2019-01-28T13:43:34.053Z,33.60
2019-01-28T13:45:59.803Z,42.97
2019-01-28T13:48:25.585Z,36.97
2019-01-28T13:51:11.249Z,40.80
2019-01-28T13:53:37.004Z,39.90
2019-01-28T13:56:02.855Z,37.33
2019-01-28T13:58:28.621Z,37.70
2019-01-28T14:00:54.475Z,36.87
2019-01-28T14:03:20.237Z,33.93
2019-01-28T14:05:45.995Z,31.13
2019-01-28T14:08:11.770Z,36.53
2019-01-28T14:10:37.525Z,33.97
2019-01-28T14:13:44.974Z,37.70
2019-01-28T14:16:10.722Z,37.07
2019-01-28T14:18:36.483Z,40.07
2019-01-28T14:21:02.442Z,50.67
2019-01-28T14:23:28.209Z,39.73
2019-01-28T14:25:53.961Z,41.17
2019-01-28T14:28:19.725Z,41.03
2019-01-28T14:30:45.471Z,40.87
2019-01-28T14:33:11.238Z,41.87
2019-01-28T14:36:18.671Z,37.23
2019-01-28T14:38:44.424Z,42.50
2019-01-28T14:41:10.176Z,41.90
2019-01-28T14:43:35.942Z,46.50
2019-01-28T14:46:01.698Z,40.90
2019-01-28T14:48:27.469Z,41.97
2019-01-28T14:50:53.416Z,43.00
2019-01-28T14:53:19.171Z,40.03
2019-01-28T14:55:44.916Z,42.17
2019-01-28T14:58:16.331Z,45.20
2019-01-28T15:00:58.333Z,47.23
2019-01-28T15:03:24.099Z,46.10
2019-01-28T15:05:49.847Z,44.10
2019-01-28T15:08:15.612Z,41.20
2019-01-28T15:10:41.368Z,40.77
2019-01-28T15:13:07.213Z,40.33
2019-01-28T15:16:14.657Z,40.47
2019-01-28T15:18:40.428Z,37.30
2019-01-28T15:21:06.182Z,50.87
2019-01-28T15:23:31.924Z,45.57
2019-01-28T15:25:57.693Z,44.40
2019-01-28T15:28:23.435Z,41.83
2019-01-28T15:30:49.207Z,42.47
2019-01-28T15:33:14.981Z,40.80
2019-01-28T15:35:40.821Z,39.80
2019-01-28T15:38:06.572Z,46.67
2019-01-28T15:43:45.779Z,41.20
2019-01-28T15:46:11.538Z,43.17
2019-01-28T15:48:37.326Z,43.93
2019-01-28T15:54:16.234Z,38.92
2019-01-28T15:56:41.991Z,40.60
2019-01-28T15:59:07.745Z,40.73
2019-01-28T16:01:33.505Z,45.30
2019-01-28T16:03:59.259Z,44.47
2019-01-28T16:06:25.026Z,37.47
2019-01-28T16:08:50.776Z,36.37
2019-01-28T16:11:16.536Z,38.03
2019-01-28T16:13:42.285Z,35.00
2019-01-28T16:16:08.045Z,76.63
2019-01-28T16:18:34.977Z,87.47
2019-01-28T16:21:01.469Z,21.25
2019-01-28T16:23:27.223Z,14.77
2019-01-28T16:25:52.999Z,14.00
2019-01-28T16:28:18.762Z,8.80
2019-01-28T16:30:44.531Z,7.57
2019-01-28T16:33:10.275Z,7.93
2019-01-28T16:35:36.056Z,5.70
2019-01-28T16:38:01.921Z,6.17
2019-01-28T16:41:09.360Z,6.03
2019-01-28T16:43:35.221Z,23.67
2019-01-28T16:46:01.012Z,6.07
2019-01-28T16:48:26.781Z,6.33
2019-01-28T16:50:52.556Z,7.93
2019-01-28T16:53:18.305Z,7.13
2019-01-28T16:55:44.052Z,7.60
2019-01-28T16:58:09.818Z,7.33
2019-01-28T17:01:17.275Z,8.30
2019-01-28T17:03:43.034Z,9.20
2019-01-28T17:06:08.844Z,10.30
2019-01-28T17:08:34.592Z,10.27
2019-01-28T17:11:00.360Z,9.87
2019-01-28T17:13:26.121Z,11.67
2019-01-28T17:15:51.876Z,12.57
2019-01-28T17:18:17.640Z,14.70
2019-01-28T17:20:43.399Z,13.03
2019-01-28T17:23:09.167Z,14.53
2019-01-28T17:26:16.585Z,15.23
2019-01-28T17:28:42.352Z,14.80
2019-01-28T17:31:08.106Z,15.27
2019-01-28T17:33:33.871Z,18.03
2019-01-28T17:35:59.613Z,14.40
2019-01-28T17:38:25.387Z,14.93
2019-01-28T17:40:51.142Z,15.20
2019-01-28T17:43:16.911Z,16.60
2019-01-28T17:45:42.660Z,15.87
2019-01-28T17:48:50.139Z,17.03
2019-01-28T17:51:15.881Z,15.48
2019-01-28T17:53:41.645Z,13.30
2019-01-28T17:56:07.409Z,18.00
2019-01-28T17:58:33.185Z,14.37
2019-01-28T18:00:58.927Z,16.87
2019-01-28T18:03:24.696Z,17.30
2019-01-28T18:05:50.457Z,14.33
2019-01-28T18:08:16.216Z,15.47
2019-01-28T18:10:41.967Z,11.70
2019-01-28T18:13:07.732Z,11.03
2019-01-28T18:15:33.484Z,13.33
2019-01-28T18:17:59.258Z,10.23
2019-01-28T18:20:25.100Z,12.67
2019-01-28T18:22:50.877Z,14.33
2019-01-28T18:25:36.505Z,13.87
2019-01-28T18:31:15.709Z,11.15
2019-01-28T18:34:01.375Z,12.33
2019-01-28T18:36:27.133Z,12.43
2019-01-28T18:38:52.895Z,12.73
2019-01-28T18:41:18.670Z,10.57
2019-01-28T18:43:44.476Z,14.57
2019-01-28T18:46:10.232Z,12.07
2019-01-28T18:48:36.016Z,11.40
2019-01-28T18:51:01.767Z,14.17
2019-01-28T18:53:27.542Z,10.40
2019-01-28T18:55:53.295Z,10.37
2019-01-28T18:58:19.068Z,10.30
2019-01-28T19:00:44.829Z,13.37
2019-01-28T19:03:10.600Z,10.97
2019-01-28T19:05:56.266Z,12.30
2019-01-28T19:08:42.038Z,13.95
2019-01-28T19:11:27.687Z,9.85
2019-01-28T19:14:13.338Z,10.35
2019-01-28T19:19:46.430Z,11.28
2019-01-28T19:22:12.223Z,11.80
2019-01-28T19:24:38.015Z,8.00
2019-01-28T19:27:45.433Z,7.97
2019-01-28T19:30:52.857Z,8.98
2019-01-28T19:33:18.627Z,11.05
2019-01-28T19:35:44.398Z,9.43
2019-01-28T19:38:10.154Z,11.43
2019-01-28T19:40:35.918Z,9.37
2019-01-28T19:43:21.570Z,9.07
2019-01-28T19:45:47.336Z,8.15
2019-01-28T19:48:13.106Z,6.30
2019-01-28T19:50:38.874Z,135.67
2019-01-28T19:53:46.299Z,68.47
2019-01-28T19:56:12.064Z,10.60
2019-01-28T19:58:37.824Z,10.40
2019-01-28T20:01:45.294Z,9.03
2019-01-28T20:04:11.052Z,9.85
2019-01-28T20:06:36.815Z,12.40
2019-01-28T20:09:44.251Z,9.27
2019-01-28T20:12:10.023Z,8.75
2019-01-28T20:14:35.769Z,8.47
2019-01-28T20:17:01.543Z,9.93
2019-01-28T20:19:27.300Z,9.00
2019-01-28T20:21:53.067Z,9.50
2019-01-28T20:24:18.818Z,10.93
2019-01-28T20:26:44.589Z,13.00
2019-01-28T20:29:10.336Z,11.17
2019-01-28T20:31:36.102Z,9.07
2019-01-28T20:34:01.950Z,9.53
2019-01-28T20:36:27.732Z,12.17
2019-01-28T20:38:53.486Z,10.27
2019-01-28T20:41:19.256Z,9.73
2019-01-28T20:43:45.001Z,9.57
2019-01-28T20:46:10.838Z,8.13
2019-01-28T20:48:36.577Z,7.83
2019-01-28T20:54:16.218Z,9.13
2019-01-28T20:56:41.951Z,9.37
2019-01-28T20:59:27.639Z,8.07
2019-01-28T21:01:53.428Z,7.17
2019-01-28T21:04:19.157Z,12.77
2019-01-28T21:06:44.907Z,7.97
2019-01-28T21:09:10.702Z,7.40
2019-01-28T21:11:36.468Z,7.50
2019-01-28T21:14:02.413Z,9.57
2019-01-28T21:16:28.189Z,6.83
2019-01-28T21:18:53.936Z,7.47
2019-01-28T21:21:19.684Z,8.30
2019-01-28T21:23:45.457Z,8.20
2019-01-28T21:26:11.213Z,9.80
2019-01-28T21:28:36.968Z,9.13
2019-01-28T21:31:02.788Z,8.83
2019-01-28T21:33:28.504Z,8.07
2019-01-28T21:36:14.161Z,11.00
2019-01-28T21:41:18.077Z,11.60
2019-01-28T21:43:43.837Z,9.33
2019-01-28T21:46:09.596Z,8.10
2019-01-28T21:48:35.388Z,9.27
2019-01-28T21:51:01.137Z,9.83
2019-01-28T21:53:26.924Z,9.00
2019-01-28T21:55:52.683Z,9.07
2019-01-28T21:58:18.455Z,8.30
2019-01-28T22:00:44.205Z,8.60
2019-01-28T22:03:09.974Z,10.80
2019-01-28T22:05:35.790Z,8.20
2019-01-28T22:08:01.601Z,12.00
2019-01-28T22:10:27.362Z,7.87
2019-01-28T22:12:53.120Z,8.50
2019-01-28T22:15:18.892Z,7.87
2019-01-28T22:17:44.632Z,8.30
2019-01-28T22:20:17.878Z,8.70
2019-01-28T22:22:43.638Z,10.60
2019-01-28T22:25:51.061Z,8.07
2019-01-28T22:28:16.804Z,7.87
2019-01-28T22:30:42.572Z,10.17
2019-01-28T22:33:08.983Z,8.70
2019-01-28T22:35:35.982Z,10.00
2019-01-28T22:38:01.738Z,9.20
2019-01-28T22:40:27.562Z,8.80
2019-01-28T22:42:53.351Z,8.93
2019-01-28T22:48:27.044Z,8.33
2019-01-28T22:50:52.822Z,8.18
2019-01-28T22:53:18.567Z,9.33
2019-01-28T22:55:44.336Z,8.73
2019-01-28T22:58:10.126Z,9.10
2019-01-28T23:01:15.648Z,9.23
2019-01-28T23:03:41.402Z,9.15
2019-01-28T23:06:07.165Z,8.70
2019-01-28T23:08:32.913Z,8.57
2019-01-28T23:10:58.672Z,14.40
2019-01-28T23:13:24.431Z,8.33
2019-01-28T23:16:10.095Z,8.10
2019-01-28T23:18:35.962Z,9.28
2019-01-28T23:21:01.732Z,8.03
2019-01-28T23:23:27.484Z,8.73
2019-01-28T23:25:53.285Z,8.37
2019-01-28T23:28:19.034Z,8.00
2019-01-28T23:30:44.796Z,13.63
2019-01-28T23:33:10.548Z,9.30
2019-01-28T23:35:36.300Z,7.97
2019-01-28T23:38:43.736Z,9.33
2019-01-28T23:41:09.493Z,9.05
2019-01-28T23:43:35.243Z,7.10
2019-01-28T23:46:01.022Z,8.43
2019-01-28T23:48:26.792Z,11.17
2019-01-28T23:50:52.537Z,7.90
2019-01-28T23:53:18.303Z,11.87
2019-01-28T23:55:44.049Z,8.70
2019-01-28T23:58:11.191Z,12.77
